createdAt,value
2023-02-15T00:02:16.253Z,24.67
2023-02-15T00:07:20.035Z,23.63
2023-02-15T00:12:21.739Z,23.77
2023-02-15T00:17:23.486Z,21.63
2023-02-15T00:22:26.019Z,22.33
2023-02-15T00:27:27.682Z,22.43
2023-02-15T00:32:29.359Z,23.23
2023-02-15T00:37:31.104Z,22.33
2023-02-15T00:42:32.772Z,22.77
2023-02-15T00:47:34.450Z,21.63
2023-02-15T00:52:36.213Z,21.70
2023-02-15T00:57:37.878Z,21.63
2023-02-15T01:02:39.522Z,25.13
2023-02-15T01:07:41.184Z,22.00
2023-02-15T01:12:43.164Z,24.23
2023-02-15T01:17:50.467Z,21.67
2023-02-15T01:22:53.195Z,21.17
2023-02-15T01:27:54.890Z,21.03
2023-02-15T01:32:56.749Z,21.93
2023-02-15T01:37:58.552Z,22.93
2023-02-15T01:43:00.221Z,21.43
2023-02-15T01:48:09.240Z,20.17
2023-02-15T01:53:24.964Z,21.00
2023-02-15T01:58:30.079Z,20.90
2023-02-15T02:04:14.387Z,21.57
2023-02-15T02:09:16.594Z,20.03
2023-02-15T02:14:19.210Z,23.97
2023-02-15T02:19:41.141Z,24.33
2023-02-15T02:25:23.789Z,23.17
2023-02-15T02:30:47.159Z,22.23
2023-02-15T02:36:01.560Z,22.80
2023-02-15T02:41:28.979Z,24.07
2023-02-15T02:46:48.110Z,22.40
2023-02-15T02:51:59.878Z,23.90
2023-02-15T02:57:07.266Z,24.87
2023-02-15T03:02:14.692Z,22.37
2023-02-15T03:07:23.088Z,24.50
2023-02-15T03:12:30.851Z,24.17
2023-02-15T03:17:36.514Z,24.60
2023-02-15T03:22:45.497Z,23.97
2023-02-15T03:27:50.670Z,23.87
2023-02-15T03:32:53.841Z,23.30
2023-02-15T03:38:00.426Z,21.63
2023-02-15T03:43:33.551Z,23.20
2023-02-15T03:48:42.769Z,23.93
2023-02-15T03:53:47.460Z,24.73
2023-02-15T03:59:07.668Z,23.73
2023-02-15T04:04:25.517Z,22.63
2023-02-15T04:09:45.740Z,22.20
2023-02-15T04:15:06.301Z,22.53
2023-02-15T04:20:28.465Z,21.47
2023-02-15T04:25:30.294Z,21.73
2023-02-15T04:30:31.995Z,22.20
2023-02-15T04:35:34.472Z,20.10
2023-02-15T04:40:36.188Z,20.77
2023-02-15T04:45:37.875Z,19.67
2023-02-15T04:50:39.533Z,20.10
2023-02-15T04:55:41.743Z,19.00
2023-02-15T05:00:43.428Z,18.70
2023-02-15T05:05:45.174Z,18.50
2023-02-15T05:10:49.582Z,18.03
2023-02-15T05:15:52.601Z,18.90
2023-02-15T05:20:54.392Z,18.30
2023-02-15T05:26:14.962Z,18.93
2023-02-15T05:31:20.709Z,20.57
2023-02-15T05:36:22.574Z,18.17
2023-02-15T05:41:25.093Z,18.17
2023-02-15T05:46:26.851Z,20.17
2023-02-15T05:51:28.600Z,18.70
2023-02-15T05:56:30.232Z,18.17
2023-02-15T06:01:31.894Z,18.20
2023-02-15T06:06:35.423Z,17.83
2023-02-15T06:11:37.084Z,19.97
2023-02-15T06:16:38.818Z,17.30
2023-02-15T06:21:41.628Z,20.53
2023-02-15T06:26:43.306Z,19.93
2023-02-15T06:31:45.050Z,22.30
2023-02-15T06:36:46.845Z,21.53
2023-02-15T06:41:48.521Z,20.67
2023-02-15T06:46:50.416Z,21.87
2023-02-15T06:51:52.081Z,22.13
2023-02-15T06:56:53.754Z,22.83
2023-02-15T07:01:55.480Z,21.60
2023-02-15T07:06:57.158Z,22.03
2023-02-15T07:12:17.558Z,22.10
2023-02-15T07:17:34.978Z,22.33
2023-02-15T07:22:38.087Z,20.77
2023-02-15T07:27:39.935Z,22.60
2023-02-15T07:33:04.634Z,28.03
2023-02-15T07:38:06.878Z,20.17
2023-02-15T07:43:08.545Z,21.53
2023-02-15T07:48:10.516Z,22.90
2023-02-15T07:53:12.230Z,26.93
2023-02-15T07:58:13.987Z,24.67
2023-02-15T08:03:15.854Z,21.13
2023-02-15T08:08:32.685Z,23.80
2023-02-15T08:13:34.331Z,21.37
2023-02-15T08:18:36.058Z,20.83
2023-02-15T08:23:37.711Z,20.00
2023-02-15T08:28:40.202Z,19.63
2023-02-15T08:33:43.627Z,21.13
2023-02-15T08:38:45.475Z,21.80
2023-02-15T08:43:50.220Z,20.70
2023-02-15T08:48:52.241Z,20.00
2023-02-15T08:53:55.862Z,21.10
2023-02-15T08:58:58.005Z,21.60
2023-02-15T09:04:06.352Z,20.30
2023-02-15T09:09:09.369Z,21.27
2023-02-15T09:14:16.669Z,21.53
2023-02-15T09:19:20.108Z,21.57
2023-02-15T09:24:21.884Z,25.63
2023-02-15T09:29:23.877Z,25.07
2023-02-15T09:34:25.599Z,24.97
2023-02-15T09:39:30.523Z,24.53
2023-02-15T09:44:35.207Z,23.80
2023-02-15T09:50:00.401Z,23.60
2023-02-15T09:55:35.945Z,24.47
2023-02-15T10:01:02.855Z,22.77
2023-02-15T10:06:16.998Z,23.40
2023-02-15T10:11:40.101Z,23.80
2023-02-15T10:16:58.456Z,22.10
2023-02-15T10:22:16.360Z,20.60
2023-02-15T10:27:21.980Z,21.57
2023-02-15T10:32:30.313Z,22.47
2023-02-15T10:37:47.377Z,19.00
2023-02-15T10:42:54.978Z,19.63
2023-02-15T10:48:11.574Z,19.07
2023-02-15T10:53:41.079Z,18.60
2023-02-15T10:58:42.804Z,18.83
2023-02-15T11:04:29.089Z,16.90
2023-02-15T11:09:41.852Z,18.33
2023-02-15T11:14:55.177Z,17.43
2023-02-15T11:20:10.450Z,18.10
2023-02-15T11:25:35.211Z,20.43
2023-02-15T11:30:45.784Z,18.07
2023-02-15T11:36:00.460Z,19.67
2023-02-15T11:41:25.325Z,20.00
2023-02-15T11:46:27.135Z,20.70
2023-02-15T11:51:29.898Z,21.07
2023-02-15T11:56:34.194Z,21.67
2023-02-15T12:01:45.606Z,22.63
2023-02-15T12:07:08.854Z,23.63
2023-02-15T12:12:30.924Z,23.03
2023-02-15T12:17:37.790Z,22.10
2023-02-15T12:22:46.266Z,21.80
2023-02-15T12:27:49.054Z,21.67
2023-02-15T12:32:57.308Z,21.03
2023-02-15T12:38:10.005Z,21.47
2023-02-15T12:43:32.795Z,19.87
2023-02-15T12:48:40.650Z,20.00
2023-02-15T12:53:45.063Z,18.48
2023-02-15T12:58:47.027Z,19.02
2023-02-15T13:04:07.512Z,18.63
2023-02-15T13:09:39.555Z,19.80
2023-02-15T13:14:46.517Z,18.05
2023-02-15T13:19:52.868Z,18.45
2023-02-15T13:24:58.541Z,19.77
2023-02-15T13:30:04.371Z,19.52
2023-02-15T13:35:09.465Z,19.83
2023-02-15T13:40:19.263Z,18.30
2023-02-15T13:45:31.904Z,18.15
2023-02-15T13:50:44.639Z,18.60
2023-02-15T13:55:55.427Z,17.33
2023-02-15T14:01:02.311Z,17.80
2023-02-15T14:06:45.384Z,18.93
2023-02-15T14:12:24.479Z,18.03
2023-02-15T14:17:32.471Z,19.33
2023-02-15T14:22:41.880Z,19.27
2023-02-15T14:28:15.708Z,17.40
2023-02-15T14:33:39.272Z,18.40
2023-02-15T14:38:54.637Z,18.20
2023-02-15T14:44:17.497Z,18.53
2023-02-15T14:49:36.352Z,18.80
2023-02-15T14:54:37.993Z,18.73
2023-02-15T14:59:45.848Z,20.30
2023-02-15T15:04:59.751Z,19.93
2023-02-15T15:10:27.485Z,22.50
2023-02-15T15:15:32.345Z,20.80
2023-02-15T15:20:41.869Z,21.60
2023-02-15T15:25:55.370Z,21.83
2023-02-15T15:31:00.559Z,20.70
2023-02-15T15:36:18.017Z,22.87
2023-02-15T15:41:45.171Z,22.10
2023-02-15T15:47:13.429Z,22.70
2023-02-15T15:52:18.058Z,22.07
2023-02-15T15:57:43.802Z,22.03
2023-02-15T16:02:51.997Z,21.73
2023-02-15T16:07:53.767Z,20.77
2023-02-15T16:12:56.071Z,22.17
2023-02-15T16:17:59.517Z,21.23
2023-02-15T16:23:39.739Z,22.93
2023-02-15T16:28:48.221Z,28.07
2023-02-15T16:33:54.440Z,27.27
2023-02-15T16:38:56.052Z,28.90
2023-02-15T16:44:03.971Z,26.47
2023-02-15T16:49:16.344Z,25.03
2023-02-15T16:54:23.480Z,24.97
2023-02-15T16:59:40.649Z,26.20
2023-02-15T17:04:43.267Z,27.20
2023-02-15T17:09:53.612Z,25.90
2023-02-15T17:14:56.146Z,26.80
2023-02-15T17:19:58.041Z,27.10
2023-02-15T17:25:02.343Z,27.60
2023-02-15T17:30:15.624Z,27.80
2023-02-15T17:35:21.908Z,30.90
2023-02-15T17:40:29.485Z,31.67
2023-02-15T17:45:38.654Z,28.27
2023-02-15T17:50:40.862Z,27.10
2023-02-15T17:55:43.591Z,23.33
2023-02-15T18:01:18.514Z,26.00
2023-02-15T18:06:38.836Z,26.83
2023-02-15T18:11:40.590Z,25.80
2023-02-15T18:16:45.536Z,27.23
2023-02-15T18:21:47.870Z,27.70
2023-02-15T18:26:49.650Z,25.13
2023-02-15T18:31:55.973Z,29.73
2023-02-15T18:36:59.258Z,26.83
2023-02-15T18:42:01.313Z,18.60
2023-02-15T18:47:03.038Z,19.03
2023-02-15T18:52:04.922Z,19.77
2023-02-15T18:57:10.384Z,20.10
2023-02-15T19:02:14.275Z,21.27
2023-02-15T19:07:26.111Z,16.63
2023-02-15T19:12:31.210Z,18.93
2023-02-15T19:17:32.862Z,17.40
2023-02-15T19:22:34.860Z,17.33
2023-02-15T19:27:36.964Z,15.13
2023-02-15T19:32:38.737Z,15.43
2023-02-15T19:37:43.644Z,15.43
2023-02-15T19:42:45.339Z,13.90
2023-02-15T19:47:49.982Z,12.83
2023-02-15T19:52:52.012Z,16.60
2023-02-15T19:57:55.320Z,16.17
2023-02-15T20:02:59.274Z,16.03
2023-02-15T20:08:03.963Z,17.50
2023-02-15T20:13:05.687Z,25.97
2023-02-15T20:18:08.134Z,21.50
2023-02-15T20:23:31.924Z,17.67
2023-02-15T20:28:33.601Z,18.00
2023-02-15T20:33:35.248Z,18.73
2023-02-15T20:38:36.944Z,19.50
2023-02-15T20:43:39.447Z,15.43
2023-02-15T20:48:41.190Z,12.70
2023-02-15T20:53:42.877Z,20.07
2023-02-15T20:58:44.605Z,18.90
2023-02-15T21:03:47.295Z,13.97
2023-02-15T21:08:48.990Z,11.73
2023-02-15T21:13:51.148Z,10.93
2023-02-15T21:18:52.850Z,10.60
2023-02-15T21:23:54.660Z,13.00
2023-02-15T21:28:56.842Z,12.63
2023-02-15T21:33:58.486Z,12.23
2023-02-15T21:39:00.526Z,11.07
2023-02-15T21:44:21.340Z,10.97
2023-02-15T21:49:23.099Z,11.83
2023-02-15T21:54:26.270Z,12.53
2023-02-15T21:59:28.006Z,11.83
2023-02-15T22:04:30.779Z,11.53
2023-02-15T22:09:38.004Z,14.30
2023-02-15T22:14:41.465Z,12.43
2023-02-15T22:19:44.532Z,12.80
2023-02-15T22:24:46.667Z,12.47
2023-02-15T22:29:49.694Z,12.37
2023-02-15T22:34:52.791Z,11.37
2023-02-15T22:39:54.612Z,15.67
2023-02-15T22:44:57.845Z,13.17
2023-02-15T22:49:59.481Z,49.37
2023-02-15T22:55:01.118Z,23.93
2023-02-15T23:00:03.843Z,13.20
2023-02-15T23:05:05.764Z,12.27
2023-02-15T23:10:21.023Z,10.93
2023-02-15T23:15:22.738Z,10.47
2023-02-15T23:20:25.506Z,10.60
2023-02-15T23:25:28.102Z,10.17
2023-02-15T23:30:29.994Z,9.60
2023-02-15T23:35:31.674Z,10.47
2023-02-15T23:40:51.817Z,10.33
2023-02-15T23:45:53.570Z,11.00
2023-02-15T23:50:55.263Z,11.73
2023-02-15T23:55:57.833Z,11.70
